Time;durP1;ratioP1;P1;durP2;ratioP2;P2;SDS_P1;SDS_P2;PMS_P1;PMS_P2;Temp;Humidity;BMP_temperature;BMP_pressure;BME280_temperature;BME280_humidity;BME280_pressure;Samples;Min_cycle;Max_cycle;Signal;HPM_P1;HPM_P2
2022/01/31 00:02:23;;;;;;;26.25;4.95;;;;;;;5.32;63.17;99674.75;5092666;28;20455;-60
2022/01/31 00:04:50;;;;;;;21.08;5.03;;;;;;;5.32;63.23;99670.38;5091448;28;20048;-60
2022/01/31 00:07:16;;;;;;;24.52;5.47;;;;;;;5.31;63.23;99639.94;5092573;28;20082;-59
2022/01/31 00:09:44;;;;;;;21.55;4.60;;;;;;;5.32;63.40;99633.84;5092709;28;20051;-60
2022/01/31 00:12:15;;;;;;;19.73;4.55;;;;;;;5.33;63.21;99632.06;5092486;28;20110;-60
2022/01/31 00:14:44;;;;;;;26.65;5.90;;;;;;;5.32;63.27;99636.47;5092681;28;20052;-60
2022/01/31 00:17:12;;;;;;;22.40;5.55;;;;;;;5.31;63.12;99620.84;5091305;28;20492;-59
2022/01/31 00:19:40;;;;;;;30.77;5.70;;;;;;;5.30;63.03;99587.81;5092281;28;20044;-60
2022/01/31 00:22:09;;;;;;;25.65;5.32;;;;;;;5.29;62.97;99586.13;5091149;28;20048;-59
2022/01/31 00:24:36;;;;;;;22.27;5.00;;;;;;;5.27;63.13;99588.78;5091185;28;20051;-59
2022/01/31 00:27:05;;;;;;;24.60;5.72;;;;;;;5.25;63.10;99572.34;5091608;28;20059;-59
2022/01/31 00:29:32;;;;;;;23.95;4.75;;;;;;;5.24;63.17;99569.78;5090682;28;20106;-58
2022/01/31 00:31:59;;;;;;;22.88;4.65;;;;;;;5.22;63.37;99556.78;5092216;28;20044;-58
2022/01/31 00:34:26;;;;;;;24.55;5.50;;;;;;;5.20;63.29;99541.19;5092180;28;20397;-60
2022/01/31 00:36:54;;;;;;;27.90;5.30;;;;;;;5.18;63.23;99529.09;5090822;28;20060;-59
2022/01/31 00:39:21;;;;;;;26.52;5.25;;;;;;;5.16;63.25;99526.56;5091864;28;20044;-61
2022/01/31 00:41:47;;;;;;;28.48;5.72;;;;;;;5.16;63.45;99520.50;5092014;28;20052;-60
2022/01/31 00:46:45;;;;;;;22.90;5.47;;;;;;;5.17;63.78;99507.41;5091343;28;20099;-60
2022/01/31 00:49:23;;;;;;;26.35;5.65;;;;;;;5.18;63.69;99514.31;5090638;28;20101;-59
2022/01/31 00:51:49;;;;;;;19.73;5.40;;;;;;;5.20;63.58;99498.59;5092047;28;20055;-60
2022/01/31 00:54:16;;;;;;;24.25;5.82;;;;;;;5.20;63.69;99489.00;5091900;28;20052;-61
2022/01/31 00:56:43;;;;;;;23.55;4.95;;;;;;;5.22;63.73;99468.94;5091692;28;20047;-60
2022/01/31 00:59:09;;;;;;;29.15;5.95;;;;;;;5.23;63.84;99461.94;5091756;28;20556;-59
2022/01/31 01:01:36;;;;;;;23.02;6.55;;;;;;;5.26;63.99;99443.53;5091329;28;20044;-58
2022/01/31 01:04:02;;;;;;;25.58;5.47;;;;;;;5.26;63.86;99420.06;5090492;28;20402;-60
2022/01/31 01:06:29;;;;;;;28.90;6.50;;;;;;;5.29;63.87;99408.63;5091790;28;20048;-59
2022/01/31 01:08:56;;;;;;;19.70;5.97;;;;;;;5.31;63.90;99396.41;5091651;28;20496;-59
2022/01/31 01:11:22;;;;;;;26.58;7.25;;;;;;;5.33;63.97;99390.19;5091441;28;20496;-61
2022/01/31 01:13:49;;;;;;;26.27;6.30;;;;;;;5.35;63.93;99383.13;5091410;28;20093;-60
2022/01/31 01:16:16;;;;;;;27.80;7.70;;;;;;;5.39;63.97;99362.13;5091615;28;20052;-59
2022/01/31 01:18:42;;;;;;;19.58;5.93;;;;;;;5.39;64.08;99355.16;5091414;28;20059;-61
2022/01/31 01:21:09;;;;;;;27.83;7.47;;;;;;;5.44;64.04;99344.50;5091163;28;20504;-59
2022/01/31 01:23:36;;;;;;;23.10;6.53;;;;;;;5.44;63.64;99334.94;5091325;28;20063;-60
2022/01/31 01:26:04;;;;;;;18.70;5.85;;;;;;;5.45;63.73;99320.97;5091407;28;20048;-60
2022/01/31 01:28:34;;;;;;;21.60;6.50;;;;;;;5.48;63.88;99299.94;5091207;28;20051;-59
2022/01/31 01:31:01;;;;;;;26.92;7.28;;;;;;;5.50;63.89;99293.81;5091006;28;20130;-59
2022/01/31 01:33:28;;;;;;;31.10;7.28;;;;;;;5.52;63.69;99291.97;5091370;28;20074;-60
2022/01/31 01:35:55;;;;;;;24.63;6.88;;;;;;;5.54;63.80;99277.09;5091187;28;20044;-60
2022/01/31 01:38:28;;;;;;;22.38;6.47;;;;;;;5.55;63.69;99263.97;5091202;28;20056;-60
2022/01/31 01:40:59;;;;;;;18.65;6.25;;;;;;;5.56;63.69;99252.63;5089708;28;20052;-58
2022/01/31 01:43:28;;;;;;;18.70;6.07;;;;;;;5.56;63.92;99229.13;5091434;28;20051;-59
2022/01/31 01:45:56;;;;;;;21.58;6.00;;;;;;;5.57;63.74;99227.38;5089773;28;20130;-60
2022/01/31 01:48:26;;;;;;;24.23;5.93;;;;;;;5.60;64.08;99219.38;5089839;28;20048;-60
2022/01/31 01:50:53;;;;;;;21.77;6.70;;;;;;;5.61;63.83;99198.41;5090934;28;20085;-61
2022/01/31 01:53:20;;;;;;;20.73;6.07;;;;;;;5.64;63.73;99188.78;5089841;28;20048;-60
2022/01/31 01:55:47;;;;;;;19.58;6.00;;;;;;;5.64;63.93;99163.50;5090999;28;20541;-59
2022/01/31 01:58:16;;;;;;;20.17;7.15;;;;;;;5.65;63.81;99166.97;5091151;28;20048;-61
2022/01/31 02:00:51;;;;;;;20.05;5.55;;;;;;;5.65;63.72;99144.31;5090784;28;20048;-60
2022/01/31 02:03:19;;;;;;;21.58;6.35;;;;;;;5.67;63.84;99129.41;5089739;28;20044;-60
2022/01/31 02:05:47;;;;;;;15.88;6.13;;;;;;;5.65;63.34;99139.09;5089797;28;20048;-59
2022/01/31 02:08:17;;;;;;;20.10;5.38;;;;;;;5.69;63.73;99122.34;5089704;28;20066;-59
2022/01/31 02:10:45;;;;;;;20.83;4.55;;;;;;;5.71;63.82;99117.91;5089886;28;20051;-60
2022/01/31 02:13:15;;;;;;;17.92;6.18;;;;;;;5.73;64.03;99115.22;5089827;28;20086;-60
2022/01/31 02:15:45;;;;;;;22.15;5.45;;;;;;;5.73;63.91;99104.78;5091036;28;20055;-59
2022/01/31 02:18:13;;;;;;;20.17;5.40;;;;;;;5.75;64.14;99100.31;5090032;28;20040;-59
2022/01/31 02:20:41;;;;;;;28.92;6.63;;;;;;;5.72;64.11;99077.81;5088829;28;20177;-59
2022/01/31 02:23:15;;;;;;;20.88;5.10;;;;;;;5.72;64.20;99084.81;5089886;28;20101;-59
2022/01/31 02:25:51;;;;;;;13.57;4.72;;;;;;;5.69;64.63;99084.94;5091339;28;20052;-59
2022/01/31 02:28:17;;;;;;;17.65;5.13;;;;;;;5.65;64.65;99060.75;5090870;28;20188;-60
2022/01/31 02:30:44;;;;;;;21.92;4.95;;;;;;;5.60;64.90;99057.50;5090425;28;20048;-59
2022/01/31 02:33:10;;;;;;;15.73;5.18;;;;;;;5.52;65.43;99057.88;5090709;28;20113;-60
2022/01/31 02:35:37;;;;;;;15.02;5.30;;;;;;;5.45;65.61;99046.03;5090858;28;20663;-59
2022/01/31 02:38:04;;;;;;;16.27;5.07;;;;;;;5.38;65.85;99029.81;5090694;28;20051;-60
2022/01/31 02:40:30;;;;;;;14.88;5.03;;;;;;;5.29;66.46;99025.03;5090552;28;20063;-63
2022/01/31 02:42:57;;;;;;;15.85;4.45;;;;;;;5.23;66.44;99015.72;5090540;28;20568;-58
2022/01/31 02:45:23;;;;;;;22.08;4.95;;;;;;;5.17;66.86;99005.59;5090672;28;20048;-57
2022/01/31 02:47:56;;;;;;;15.50;4.40;;;;;;;5.09;67.48;99001.56;5090477;28;20056;-61
2022/01/31 02:50:23;;;;;;;13.18;4.90;;;;;;;5.03;67.53;98983.59;5090903;28;20056;-61
2022/01/31 02:52:59;;;;;;;13.98;5.07;;;;;;;5.00;67.63;98983.72;5094207;28;20044;-60
2022/01/31 02:55:26;;;;;;;15.90;5.15;;;;;;;4.95;68.25;98980.50;5094237;28;20056;-60
2022/01/31 02:57:54;;;;;;;18.98;5.05;;;;;;;4.89;68.19;98950.31;5092981;28;20068;-62
2022/01/31 03:00:20;;;;;;;14.02;5.00;;;;;;;4.83;68.67;98938.41;5094063;28;20056;-60
2022/01/31 03:02:47;;;;;;;19.30;5.63;;;;;;;4.78;69.06;98935.19;5094195;28;20503;-60
2022/01/31 03:05:13;;;;;;;13.38;5.00;;;;;;;4.75;68.92;98924.88;5094124;28;20392;-59
2022/01/31 03:07:40;;;;;;;11.23;5.32;;;;;;;4.70;69.27;98921.66;5093730;28;20056;-59
2022/01/31 03:10:07;;;;;;;12.82;5.00;;;;;;;4.68;69.07;98910.47;5093861;28;20062;-60
2022/01/31 03:12:34;;;;;;;14.80;5.25;;;;;;;4.63;69.40;98900.22;5093480;28;20044;-59
2022/01/31 03:15:00;;;;;;;16.15;5.25;;;;;;;4.61;69.58;98906.44;5093521;28;20052;-59
2022/01/31 03:17:27;;;;;;;15.57;5.35;;;;;;;4.57;69.17;98885.72;5093629;28;20048;-61
2022/01/31 03:19:54;;;;;;;19.63;5.13;;;;;;;4.54;69.58;98875.47;5093476;28;20488;-59
2022/01/31 03:22:23;;;;;;;10.40;5.13;;;;;;;4.50;69.40;98870.44;5092612;28;20096;-59
2022/01/31 03:24:49;;;;;;;11.30;3.72;;;;;;;4.46;69.31;98861.06;5093813;28;20044;-61
2022/01/31 03:27:16;;;;;;;8.90;4.82;;;;;;;4.38;69.45;98843.19;5093574;28;20052;-58
2022/01/31 03:29:43;;;;;;;8.68;4.00;;;;;;;4.31;69.37;98837.44;5093547;28;20047;-60
2022/01/31 03:32:10;;;;;;;8.55;3.88;;;;;;;4.26;69.39;98822.00;5093754;28;20472;-61
2022/01/31 03:34:36;;;;;;;6.15;3.72;;;;;;;4.20;69.49;98824.03;5093705;28;20450;-60
2022/01/31 03:37:03;;;;;;;9.00;4.88;;;;;;;4.14;69.53;98809.53;5093638;28;20723;-59
2022/01/31 03:39:29;;;;;;;10.07;4.72;;;;;;;4.06;69.54;98804.69;5093235;28;20048;-61
2022/01/31 03:41:56;;;;;;;10.75;4.90;;;;;;;3.99;69.97;98798.91;5093179;28;20048;-60
2022/01/31 03:44:23;;;;;;;13.63;4.70;;;;;;;3.93;69.95;98786.19;5092088;28;20105;-59
2022/01/31 03:46:49;;;;;;;10.07;4.78;;;;;;;3.87;69.90;98782.09;5093009;28;20066;-60
2022/01/31 03:49:19;;;;;;;6.88;4.57;;;;;;;3.81;69.89;98769.34;5092827;28;20084;-60
2022/01/31 03:51:45;;;;;;;10.52;4.55;;;;;;;3.75;70.45;98769.63;5093223;28;20045;-59
2022/01/31 03:54:12;;;;;;;8.20;4.30;;;;;;;3.68;70.62;98769.06;5093078;28;20048;-61
2022/01/31 03:56:39;;;;;;;7.78;4.82;;;;;;;3.61;71.19;98768.47;5091621;28;20097;-60
2022/01/31 03:59:07;;;;;;;11.18;4.85;;;;;;;3.57;71.46;98732.25;5092563;28;20078;-60
2022/01/31 04:01:34;;;;;;;8.90;4.90;;;;;;;3.50;71.76;98763.75;5091898;28;20075;-63
2022/01/31 04:04:01;;;;;;;6.68;4.53;;;;;;;3.46;72.32;98746.59;5092518;28;20488;-60
2022/01/31 04:06:28;;;;;;;7.05;5.22;;;;;;;3.43;72.37;98736.31;5092877;28;20048;-59
2022/01/31 04:08:54;;;;;;;7.60;4.95;;;;;;;3.40;72.86;98720.81;5092657;28;20093;-61
2022/01/31 04:11:21;;;;;;;9.43;6.00;;;;;;;3.38;73.30;98739.13;5092573;28;20052;-60
2022/01/31 04:13:47;;;;;;;10.05;6.15;;;;;;;3.35;73.54;98723.66;5093038;28;20044;-60
2022/01/31 04:16:14;;;;;;;8.80;6.05;;;;;;;3.34;74.10;98729.78;5093093;28;20070;-59
2022/01/31 04:18:41;;;;;;;10.32;5.32;;;;;;;3.35;73.89;98713.25;5092374;28;20553;-62
2022/01/31 04:21:08;;;;;;;10.80;6.30;;;;;;;3.34;74.39;98714.16;5092424;28;20055;-60
2022/01/31 04:23:35;;;;;;;11.60;5.35;;;;;;;3.36;74.25;98709.72;5092454;28;20105;-60
2022/01/31 04:26:13;;;;;;;12.55;5.15;;;;;;;3.38;74.39;98696.66;5092761;28;20052;-60
2022/01/31 04:33:48;;;;;;;7.20;4.50;;;;;;;3.38;74.30;98684.50;5092425;28;20091;-61
2022/01/31 04:36:15;;;;;;;8.90;5.13;;;;;;;3.38;74.50;98674.09;5090551;28;20055;-62
2022/01/31 04:38:44;;;;;;;6.07;5.03;;;;;;;3.39;75.31;98667.97;5092373;28;20051;-60
2022/01/31 04:41:10;;;;;;;8.95;5.28;;;;;;;3.40;75.20;98671.41;5091946;28;20522;-60
2022/01/31 04:43:37;;;;;;;6.47;4.75;;;;;;;3.43;75.76;98679.06;5091892;28;20048;-61
2022/01/31 04:46:06;;;;;;;12.60;5.38;;;;;;;3.45;76.13;98660.78;5091917;28;20091;-60
2022/01/31 04:48:34;;;;;;;7.93;4.93;;;;;;;3.50;76.40;98659.69;5091946;28;20048;-62
2022/01/31 04:51:01;;;;;;;9.25;4.93;;;;;;;3.55;76.30;98661.22;5090820;28;20051;-60
2022/01/31 04:53:28;;;;;;;7.03;4.60;;;;;;;3.61;76.24;98658.31;5092159;28;20056;-60
2022/01/31 04:55:55;;;;;;;5.78;4.53;;;;;;;3.67;76.59;98649.41;5090650;28;20044;-61
2022/01/31 04:58:22;;;;;;;6.97;4.40;;;;;;;3.72;76.69;98645.66;5091311;28;20048;-60
2022/01/31 05:00:50;;;;;;;8.73;4.45;;;;;;;3.77;77.01;98643.69;5091815;28;20047;-60
2022/01/31 05:03:19;;;;;;;6.80;4.70;;;;;;;3.83;77.12;98634.75;5090376;28;20389;-60
2022/01/31 05:05:46;;;;;;;7.30;4.93;;;;;;;3.90;77.08;98619.69;5090960;28;20117;-61
2022/01/31 05:08:14;;;;;;;11.57;5.20;;;;;;;3.96;77.03;98619.38;5090688;28;20060;-60
2022/01/31 05:10:46;;;;;;;13.40;5.00;;;;;;;4.04;77.33;98616.44;5091645;28;20451;-60
2022/01/31 05:13:13;;;;;;;8.45;4.65;;;;;;;4.10;77.61;98604.84;5091415;28;20488;-60
2022/01/31 05:15:41;;;;;;;8.23;5.30;;;;;;;4.17;77.70;98603.63;5089297;28;20040;-60
2022/01/31 05:18:08;;;;;;;10.13;5.00;;;;;;;4.23;77.85;98595.50;5090525;28;20056;-61
2022/01/31 05:20:35;;;;;;;7.38;5.00;;;;;;;4.32;77.64;98593.34;5091205;28;20471;-59
2022/01/31 05:23:01;;;;;;;11.00;5.00;;;;;;;4.39;77.73;98594.75;5091391;28;20048;-60
2022/01/31 05:25:28;;;;;;;5.78;4.40;;;;;;;4.47;77.81;98583.94;5090000;28;20055;-61
2022/01/31 05:27:54;;;;;;;10.50;4.32;;;;;;;4.53;77.82;98591.44;5091434;28;20059;-61
2022/01/31 05:30:23;;;;;;;9.88;5.85;;;;;;;4.59;77.57;98585.09;5090965;28;20047;-60
2022/01/31 05:32:49;;;;;;;9.70;5.20;;;;;;;4.65;77.67;98588.22;5090529;28;20071;-60
2022/01/31 05:35:16;;;;;;;8.18;5.07;;;;;;;4.70;77.81;98577.53;5091621;28;20097;-61
2022/01/31 05:37:43;;;;;;;11.02;5.32;;;;;;;4.75;77.75;98564.28;5090338;28;20052;-61
2022/01/31 05:40:10;;;;;;;10.85;4.57;;;;;;;4.81;77.84;98567.41;5091221;28;20051;-62
2022/01/31 05:42:36;;;;;;;8.60;4.63;;;;;;;4.88;77.95;98564.47;5091298;28;20120;-62
2022/01/31 05:45:04;;;;;;;12.02;5.18;;;;;;;4.94;77.73;98569.38;5089994;28;20047;-60
2022/01/31 05:47:30;;;;;;;11.35;5.60;;;;;;;5.00;77.62;98570.78;5089826;28;20059;-61
2022/01/31 05:49:57;;;;;;;11.52;5.38;;;;;;;5.05;77.90;98555.75;5090096;28;20129;-61
2022/01/31 05:52:23;;;;;;;10.88;4.97;;;;;;;5.11;77.92;98559.78;5090157;28;20059;-60
2022/01/31 05:54:55;;;;;;;7.07;4.47;;;;;;;5.18;78.19;98559.38;5091138;28;20044;-61
2022/01/31 05:57:22;;;;;;;9.63;4.95;;;;;;;5.24;77.81;98549.53;5091072;28;20044;-60
2022/01/31 05:59:48;;;;;;;12.88;4.35;;;;;;;5.30;78.04;98551.78;5090818;28;20496;-62
2022/01/31 06:02:15;;;;;;;9.48;4.57;;;;;;;5.38;78.11;98549.63;5091216;28;20048;-61
2022/01/31 06:04:42;;;;;;;9.05;4.20;;;;;;;5.44;78.46;98544.06;5090260;28;20101;-61
2022/01/31 06:07:08;;;;;;;12.80;4.63;;;;;;;5.52;78.27;98553.22;5091156;28;20073;-60
2022/01/31 06:09:36;;;;;;;9.45;4.10;;;;;;;5.57;78.25;98552.03;5090807;28;20044;-62
2022/01/31 06:12:04;;;;;;;10.77;4.07;;;;;;;5.64;78.08;98536.88;5090772;28;20060;-62
2022/01/31 06:14:31;;;;;;;8.40;3.47;;;;;;;5.70;77.97;98538.31;5090022;28;20055;-60
2022/01/31 06:16:59;;;;;;;8.25;2.90;;;;;;;5.76;78.12;98543.19;5089801;28;20040;-60
2022/01/31 06:19:25;;;;;;;12.50;3.42;;;;;;;5.81;77.82;98540.31;5090624;28;20052;-61
2022/01/31 06:21:52;;;;;;;11.27;2.90;;;;;;;5.86;78.03;98538.25;5090759;28;20075;-60
2022/01/31 06:24:18;;;;;;;8.55;2.85;;;;;;;5.91;77.95;98538.00;5090850;28;20105;-59
2022/01/31 06:26:45;;;;;;;7.55;2.50;;;;;;;5.94;77.89;98532.63;5093201;28;20060;-60
2022/01/31 06:29:12;;;;;;;12.60;2.78;;;;;;;5.99;77.67;98527.97;5094640;28;20048;-61
2022/01/31 06:31:38;;;;;;;9.65;2.97;;;;;;;6.03;77.29;98518.16;5094949;28;20048;-60
2022/01/31 06:34:05;;;;;;;12.98;2.70;;;;;;;6.06;77.27;98525.88;5094961;28;20472;-60
2022/01/31 06:36:32;;;;;;;4.43;1.90;;;;;;;6.08;77.65;98514.41;5094138;28;20098;-62
2022/01/31 06:39:00;;;;;;;9.75;2.30;;;;;;;6.12;77.52;98512.44;5093945;28;20062;-61
2022/01/31 06:41:28;;;;;;;5.70;2.10;;;;;;;6.16;77.52;98513.13;5093062;28;20523;-62
2022/01/31 06:43:55;;;;;;;10.68;2.80;;;;;;;6.17;77.35;98509.56;5093901;28;20430;-60
2022/01/31 06:46:22;;;;;;;12.18;2.38;;;;;;;6.19;77.07;98499.84;5094444;28;20134;-61
2022/01/31 06:48:49;;;;;;;9.13;2.70;;;;;;;6.21;76.99;98503.22;5094408;28;20055;-62
2022/01/31 06:51:15;;;;;;;5.35;1.73;;;;;;;6.23;77.24;98498.75;5093871;28;20097;-61
2022/01/31 06:53:42;;;;;;;11.80;2.53;;;;;;;6.25;77.13;98494.28;5094118;28;20377;-62
2022/01/31 06:56:09;;;;;;;11.90;2.40;;;;;;;6.26;77.00;98498.56;5093843;28;20044;-61
2022/01/31 06:58:35;;;;;;;11.73;2.28;;;;;;;6.27;77.24;98497.63;5094015;28;20055;-61
2022/01/31 07:01:02;;;;;;;14.82;2.42;;;;;;;6.27;76.86;98491.56;5094074;28;20071;-62
2022/01/31 07:03:29;;;;;;;9.35;1.73;;;;;;;6.26;76.79;98493.34;5094066;28;20052;-61
2022/01/31 07:05:55;;;;;;;9.75;2.20;;;;;;;6.28;77.01;98488.03;5093999;28;20044;-60
2022/01/31 07:08:22;;;;;;;9.88;1.60;;;;;;;6.27;76.93;98500.25;5093450;28;20051;-60
2022/01/31 07:10:51;;;;;;;5.20;1.90;;;;;;;6.27;76.90;98491.56;5093829;28;20051;-60
2022/01/31 07:13:35;;;;;;;9.00;1.50;;;;;;;6.27;76.71;98492.41;5094028;28;20048;-62
2022/01/31 07:16:05;;;;;;;2.95;1.17;;;;;;;6.24;76.32;98489.97;5093795;28;20074;-60
2022/01/31 07:18:34;;;;;;;7.43;1.67;;;;;;;6.24;76.45;98489.97;5092696;28;20040;-60
2022/01/31 07:21:01;;;;;;;6.95;1.27;;;;;;;6.23;76.21;98496.13;5092849;28;20048;-60
2022/01/31 07:23:38;;;;;;;5.55;1.20;;;;;;;6.20;76.23;98488.50;5094097;28;20062;-60
2022/01/31 07:26:04;;;;;;;4.47;1.20;;;;;;;6.19;75.89;98494.63;5093713;28;20648;-60
2022/01/31 07:28:31;;;;;;;2.67;1.10;;;;;;;6.15;75.92;98475.69;5092935;28;20125;-62
2022/01/31 07:30:58;;;;;;;3.55;1.30;;;;;;;6.11;75.75;98477.66;5091886;28;20097;-61
2022/01/31 07:33:24;;;;;;;3.30;1.20;;;;;;;6.10;75.92;98488.19;5093255;28;20090;-62
2022/01/31 07:35:51;;;;;;;3.58;1.00;;;;;;;6.06;75.85;98482.28;5092734;28;20135;-62
2022/01/31 07:38:18;;;;;;;3.45;1.08;;;;;;;6.05;76.38;98478.00;5093347;28;20121;-60
2022/01/31 07:40:45;;;;;;;2.38;0.98;;;;;;;6.04;76.17;98475.47;5092307;28;20052;-63
2022/01/31 07:43:13;;;;;;;3.17;0.85;;;;;;;6.02;76.15;98475.53;5092194;28;20074;-61
2022/01/31 07:45:39;;;;;;;3.22;0.93;;;;;;;6.02;76.38;98472.91;5091896;28;20044;-61
2022/01/31 07:48:06;;;;;;;1.98;0.80;;;;;;;5.99;76.20;98471.31;5091990;28;20555;-61
2022/01/31 07:50:36;;;;;;;4.15;1.20;;;;;;;5.99;76.48;98465.28;5092237;28;20105;-61
2022/01/31 07:53:04;;;;;;;3.85;1.15;;;;;;;5.98;76.44;98459.19;5093166;28;20043;-61
2022/01/31 07:55:31;;;;;;;3.47;1.10;;;;;;;5.98;76.67;98464.44;5092108;28;20409;-61
2022/01/31 07:57:58;;;;;;;2.22;1.05;;;;;;;5.98;76.86;98459.19;5091894;28;20401;-60
2022/01/31 08:00:44;;;;;;;4.47;1.40;;;;;;;5.99;76.90;98457.44;5092682;28;20059;-61
2022/01/31 08:03:12;;;;;;;3.63;1.00;;;;;;;5.99;76.85;98455.66;5091419;28;20076;-63
2022/01/31 08:05:39;;;;;;;3.67;1.20;;;;;;;6.02;77.17;98464.25;5091801;28;20090;-62
2022/01/31 08:08:06;;;;;;;3.50;1.40;;;;;;;6.02;76.91;98464.25;5093006;28;20059;-61
2022/01/31 08:10:36;;;;;;;5.82;1.92;;;;;;;6.02;77.03;98456.41;5091837;28;20044;-60
2022/01/31 08:13:04;;;;;;;7.90;1.70;;;;;;;6.03;77.23;98450.25;5090697;28;20170;-60
2022/01/31 08:15:33;;;;;;;4.78;1.77;;;;;;;6.03;77.34;98450.25;5091808;28;20079;-60
2022/01/31 08:18:00;;;;;;;3.30;1.65;;;;;;;6.05;77.03;98451.06;5091965;28;20044;-61
2022/01/31 08:20:26;;;;;;;5.10;1.70;;;;;;;6.05;77.64;98453.66;5092282;28;20105;-61
2022/01/31 08:22:53;;;;;;;4.40;1.58;;;;;;;6.04;77.69;98455.44;5092553;28;20099;-62
2022/01/31 08:25:20;;;;;;;6.15;1.45;;;;;;;6.06;77.58;98450.94;5092463;28;20067;-62
2022/01/31 08:27:49;;;;;;;2.78;1.20;;;;;;;6.10;77.90;98454.22;5092570;28;20052;-61
2022/01/31 08:30:22;;;;;;;7.53;1.65;;;;;;;6.11;77.73;98459.38;5092113;28;20052;-61
2022/01/31 08:32:59;;;;;;;5.38;1.20;;;;;;;6.15;77.86;98465.22;5092723;28;20059;-61
2022/01/31 08:38:11;;;;;;;2.58;1.10;;;;;;;6.21;77.79;98454.41;5092367;28;20048;-60
2022/01/31 08:40:39;;;;;;;3.42;1.05;;;;;;;6.24;77.38;98461.22;5092079;28;20527;-60
2022/01/31 08:43:06;;;;;;;3.50;1.30;;;;;;;6.23;77.28;98449.94;5091911;28;20048;-62
2022/01/31 08:45:35;;;;;;;2.33;1.15;;;;;;;6.22;76.82;98442.19;5092206;28;20058;-61
2022/01/31 08:48:04;;;;;;;3.95;1.02;;;;;;;6.22;76.69;98436.97;5091351;28;20459;-68
2022/01/31 08:50:31;;;;;;;1.88;0.80;;;;;;;6.23;77.12;98436.03;5091750;28;20048;-62
2022/01/31 08:52:58;;;;;;;2.15;0.85;;;;;;;6.24;77.13;98437.69;5090606;28;20055;-61
2022/01/31 08:55:25;;;;;;;2.65;0.85;;;;;;;6.23;76.87;98444.72;5091928;28;20173;-60
2022/01/31 08:57:55;;;;;;;3.03;0.82;;;;;;;6.24;77.29;98440.31;5090667;28;20083;-61
2022/01/31 09:00:33;;;;;;;2.85;0.90;;;;;;;6.24;76.89;98437.69;5090440;28;20117;-62
2022/01/31 09:05:37;;;;;;;1.80;0.75;;;;;;;6.24;76.99;98440.31;5091814;28;20139;-63
2022/01/31 09:08:04;;;;;;;2.15;0.60;;;;;;;6.24;77.08;98430.72;5073636;28;20040;-60
2022/01/31 09:10:31;;;;;;;5.13;1.00;;;;;;;6.24;76.93;98432.47;5091691;28;20052;-62
2022/01/31 09:12:58;;;;;;;3.10;0.80;;;;;;;6.24;77.19;98430.72;5091859;28;20052;-63
2022/01/31 09:15:24;;;;;;;2.40;1.00;;;;;;;6.24;77.23;98428.09;5091240;28;20052;-61
2022/01/31 09:17:51;;;;;;;2.53;0.95;;;;;;;6.25;77.04;98421.09;5091889;28;20052;-62
2022/01/31 09:20:19;;;;;;;2.40;0.90;;;;;;;6.24;76.91;98420.25;5091590;28;20086;-60
2022/01/31 09:22:45;;;;;;;3.75;0.80;;;;;;;6.26;77.54;98422.78;5091628;28;20518;-62
2022/01/31 09:25:14;;;;;;;1.23;0.82;;;;;;;6.28;77.58;98427.91;5090374;28;20052;-60
2022/01/31 09:27:41;;;;;;;1.45;0.80;;;;;;;6.30;77.45;98421.66;5091366;28;20128;-60
2022/01/31 09:30:10;;;;;;;1.73;0.65;;;;;;;6.31;77.52;98425.13;5091277;28;20066;-62
2022/01/31 09:32:37;;;;;;;3.78;1.27;;;;;;;6.34;77.95;98424.91;5091593;28;20105;-61
2022/01/31 09:35:04;;;;;;;3.08;0.85;;;;;;;6.36;77.98;98428.28;5090938;28;20500;-63
2022/01/31 09:37:30;;;;;;;4.75;1.25;;;;;;;6.36;77.52;98416.03;5091037;28;20044;-60
2022/01/31 09:40:03;;;;;;;1.77;0.80;;;;;;;6.38;77.61;98416.81;5090846;28;20050;-59
2022/01/31 09:42:41;;;;;;;3.58;0.70;;;;;;;6.39;77.66;98409.78;5091079;28;20051;-62
2022/01/31 09:50:21;;;;;;;3.38;0.88;;;;;;;6.45;78.06;98432.94;5090486;28;20044;-61
2022/01/31 09:52:48;;;;;;;3.47;1.00;;;;;;;6.47;78.07;98435.47;5089653;28;20060;-62
2022/01/31 09:55:15;;;;;;;3.63;1.33;;;;;;;6.51;78.05;98437.78;5089695;28;20055;-61
2022/01/31 09:57:42;;;;;;;4.80;1.05;;;;;;;6.54;78.35;98436.75;5090765;28;20133;-61
2022/01/31 10:00:09;;;;;;;3.25;0.80;;;;;;;6.57;78.20;98433.97;5092071;28;20081;-60
2022/01/31 10:02:36;;;;;;;2.95;1.10;;;;;;;6.61;78.26;98437.22;5095181;28;20044;-60
2022/01/31 10:05:04;;;;;;;3.90;1.48;;;;;;;6.65;78.30;98452.63;5094028;28;20051;-61
2022/01/31 10:07:46;;;;;;;2.17;1.25;;;;;;;6.69;77.91;98455.06;5093683;28;20846;-60
2022/01/31 10:10:22;;;;;;;4.55;1.75;;;;;;;6.74;78.33;98453.00;5093764;28;20447;-61
2022/01/31 10:18:08;;;;;;;3.15;1.60;;;;;;;6.93;78.65;98485.84;5095187;28;20052;-61
2022/01/31 10:20:58;;;;;;;5.18;2.00;;;;;;;6.99;77.93;98488.09;5095022;28;20083;-61
2022/01/31 10:23:25;;;;;;;4.95;1.98;;;;;;;7.04;78.79;98493.88;5093527;28;20113;-61
2022/01/31 10:25:51;;;;;;;6.32;2.00;;;;;;;7.09;78.60;98493.56;5094753;28;20055;-60
2022/01/31 10:28:20;;;;;;;5.97;1.95;;;;;;;7.14;78.65;98497.56;5094637;28;20088;-60
2022/01/31 10:30:51;;;;;;;6.43;2.20;;;;;;;7.18;78.65;98503.47;5094571;28;20062;-61
2022/01/31 10:33:20;;;;;;;5.97;1.88;;;;;;;7.24;78.51;98507.47;5093648;28;20044;-61
2022/01/31 10:35:47;;;;;;;2.35;1.38;;;;;;;7.28;78.55;98514.19;5093329;28;20552;-65
2022/01/31 10:38:18;;;;;;;6.85;1.38;;;;;;;7.33;78.55;98516.53;5094490;28;20504;-60
2022/01/31 10:44:17;;;;;;;3.15;1.50;;;;;;;7.42;78.73;98519.41;5094450;28;20044;-61
2022/01/31 10:52:04;;;;;;;5.95;2.22;;;;;;;7.58;78.27;98547.19;5094343;28;20044;-61
2022/01/31 10:57:05;;;;;;;6.30;2.67;;;;;;;7.65;78.17;98537.16;5094211;28;20044;-60
2022/01/31 10:59:46;;;;;;;4.20;2.55;;;;;;;7.68;77.62;98552.69;5092897;28;20052;-60
2022/01/31 11:02:20;;;;;;;5.30;2.22;;;;;;;7.72;77.40;98563.81;5092862;28;20480;-60
2022/01/31 11:04:49;;;;;;;7.05;2.95;;;;;;;7.76;77.63;98566.13;5093145;28;20052;-60
2022/01/31 11:07:19;;;;;;;8.25;2.60;;;;;;;7.79;78.09;98568.56;5092760;28;20488;-62
2022/01/31 11:09:49;;;;;;;6.13;2.90;;;;;;;7.84;79.40;98565.63;5093496;28;20067;-60
2022/01/31 11:12:19;;;;;;;8.18;2.70;;;;;;;7.93;79.83;98570.28;5093526;28;20052;-62
2022/01/31 11:14:46;;;;;;;5.85;2.53;;;;;;;8.04;80.90;98566.94;5094011;28;20074;-61
2022/01/31 11:17:16;;;;;;;4.80;2.40;;;;;;;8.20;81.63;98558.06;5092746;28;20105;-61
2022/01/31 11:19:49;;;;;;;3.38;2.22;;;;;;;8.38;81.41;98560.41;5093760;28;20048;-60
2022/01/31 11:22:26;;;;;;;3.90;1.90;;;;;;;8.60;81.96;98581.66;5093501;28;20047;-60
2022/01/31 11:25:12;;;;;;;4.43;1.27;;;;;;;8.84;81.72;98582.69;5093820;28;20048;-61
2022/01/31 11:27:40;;;;;;;4.40;1.90;;;;;;;9.01;80.36;98588.56;5092356;28;20055;-60
2022/01/31 11:30:08;;;;;;;3.47;1.65;;;;;;;9.13;79.14;98592.97;5092027;28;20055;-61
2022/01/31 11:32:38;;;;;;;3.85;1.65;;;;;;;9.20;77.88;98591.56;5093458;28;20055;-61
2022/01/31 11:35:06;;;;;;;3.20;1.35;;;;;;;9.25;77.42;98612.25;5092229;28;20048;-61
2022/01/31 11:37:32;;;;;;;3.05;1.05;;;;;;;9.25;76.59;98618.38;5093452;28;20075;-61
2022/01/31 11:40:05;;;;;;;4.45;1.13;;;;;;;9.22;75.62;98629.06;5093442;28;20447;-60
2022/01/31 11:42:33;;;;;;;2.85;1.50;;;;;;;9.19;76.05;98647.66;5092367;28;20056;-61
2022/01/31 11:44:59;;;;;;;3.20;1.15;;;;;;;9.13;75.35;98632.34;5093257;28;20043;-61
2022/01/31 11:47:29;;;;;;;6.78;1.30;;;;;;;9.06;75.36;98638.97;5093032;28;20051;-62
2022/01/31 11:49:58;;;;;;;2.80;0.88;;;;;;;9.02;75.66;98627.00;5091955;28;20052;-60
2022/01/31 11:52:29;;;;;;;3.25;1.00;;;;;;;8.97;75.83;98636.00;5093197;28;20048;-62
2022/01/31 11:55:02;;;;;;;2.80;1.05;;;;;;;8.92;75.22;98647.78;5091851;28;20044;-61
2022/01/31 11:57:32;;;;;;;1.27;0.77;;;;;;;8.91;75.93;98651.34;5091769;28;20048;-61
2022/01/31 12:00:11;;;;;;;3.63;1.08;;;;;;;8.86;74.47;98654.31;5093165;28;20051;-61
2022/01/31 12:02:49;;;;;;;4.88;1.15;;;;;;;8.85;74.62;98657.84;5091684;28;20098;-62
2022/01/31 12:05:25;;;;;;;5.90;1.10;;;;;;;8.84;74.87;98650.91;5091781;28;20055;-60
2022/01/31 12:08:16;;;;;;;4.43;1.27;;;;;;;8.80;74.70;98657.31;5091587;28;20090;-61
2022/01/31 12:11:17;;;;;;;5.28;1.23;;;;;;;8.83;75.88;98659.75;5091615;28;20489;-61
2022/01/31 12:13:49;;;;;;;3.10;1.25;;;;;;;8.84;76.32;98664.91;5092861;28;20480;-60
2022/01/31 12:16:45;;;;;;;5.15;1.38;;;;;;;8.81;75.02;98666.88;5091388;28;20066;-60
2022/01/31 12:22:05;;;;;;;2.50;1.42;;;;;;;8.98;80.83;98684.94;5092092;28;20077;-62
2022/01/31 12:24:37;;;;;;;5.22;1.50;;;;;;;9.25;82.70;98684.00;5090812;28;20450;-60